Santo Domingo de Guzmán, República Dominicana

10:26 AM AST en Mayo 30, 2015 (GMT -0400)
SMRD_UNAVCO Santo Domingo | | Change Station
CLOSE
Current Station
Estación meteorológica personal
Location: Santo Domingo, DISTRITO NACIONAL
Altura: 66 ft
Estaciones meteorológicas cercanas

Alt 66 ft 18.46 °N, 69.91 °W | Updated 10 minutes ago

Mostly Cloudy
Muy nublado
81.5 ° F
Sensación térmica 86 ° F
N
1.9
Viento Variable Viento desde Norte

Hoy
Alta -- | Baja -- ° F
--% Posibilidad de precipitaciones
Ayer
Alta -- | Baja -- ° F
Precip. -- pul
6:02 AM 7:11 PM
Gibosa creciente, 90% visible
Presión 30.01 pul
Visibilidad 6.2 Millas
Nubes Muy nublado 1800 ft
Muy nublado 30000 ft
Índice de calor 86 ° F
Punto de rocío 71 ° F
Humedad 70%
Precipitaciones 0.01 pul
Espesor de la nieve No disponible.
UV 7 de una escala de 12
Polen No disponible.
Calidad del aire No disponible.
Flu Activity No disponible.
METAR MDJB 301400Z 00000KT 9999 BKN018 BKN300 25/22 Q1016

More Conditions Fewer Conditions

Presión 30.01 pul
Visibilidad 6.2 Millas
Nubes Muy nublado 1800 ft
Muy nublado 30000 ft
Índice de calor 86 ° F
Punto de rocío 71 ° F
Humedad 70%
Precipitaciones 0.01 pul
Espesor de la nieve No disponible.
UV 7 de una escala de 12
Polen No disponible.
Calidad del aire No disponible.
Flu Activity No disponible.
METAR MDJB 301400Z 00000KT 9999 BKN018 BKN300 25/22 Q1016

More Conditions Fewer Conditions

10-Day Weather Forecast

Almanac

Astronomía

May. 30, 2015 Salida Puesta
Hora real
Crepúsculo civil
Crepúsculo náutico
Crepúsculo astronómico
Luna
Horas de luz
Horas de luz
Tomorrow will be .
, % of the Moon is Illuminated

Extremos de hoy

Máximos del país Bajas del país

Community

WunderPhotos

Upload Photos

1,825,519 ¡fotos cargadas!

WunderBlogs® & News

Nearby

Calidad del aire

  Calidad del aire Índice AQ Contaminante
Not available.

Grosos de nieve

Estación Profundido Altura

Actividad de terremotos

Ciudad Distance Mag. Tiempo y dato
Magnitud mínima muestra es 2,5.

Temperaturas de aguas costeras

Lugar Temperatura

Stations

Estaciones meteorológicas cercanas

Ubicación de la estación Temp. Vientos helados Punto de rocío Humedad Viento Precip. Alt Actualizado Tipo